Sacramento, California
Traffic Map
Current Weather Conditions
Sacramento, California
Overcast
Overcast
52°
Feels Like: 52°
Wind Chill: 52° Ceiling: 4700
Heat Index: 52° Visibility: 10mi
Dew Point: 48° Wind: 7mph
Humidity: 86% Direction: 100° (E)
Pressure: 30.14in Gusts: 0mph
Raw Report DataKSAC 181453Z 10006KT 10SM OVC047 11/09 A3014 RMK AO2 SLP206 T01110089 53010
Traffic Incident Summary
Active as of:
Severity:
Category:
InformationThere was an issue retrieving the traffic information for this location. Please try a different location or try again shortly.
Advertisements
Track Severe Weather on mobile